Aviation Digital Data Service (ADDS)

Output produced by METARs form (2231 UTC 20 October 2018)
found at http://www.aviationweather.gov/metar/data/
 
TAF WPDL 201705Z 2018/2106 15005KT CAVOK 
     FM210000 32008KT CAVOK